Amber, Washington
Current Conditions -  °F | °C
As of 7:58 PM on Wednesday 24 Dec 2014 (Local Time) from KSKA Reporting Station
Clear Clear  
Wind Chill: -2°   Ceiling: Unl
Heat Index:   Visibility: 10mi
Dew Point:   Wind: 6mph
Humidity: 94%   Direction: 300°WNW
Pressure: 29.71"   Gusts: NA
Location:  47.411°N, 117.628°W
Report Text: KSKA 250358Z AUTO 30005KT 10SM CLR 01/00 A2971 RMK AO2 SLP083 P0000 T00061002
Loading
Personal Weather Stations






























Interactive Weather Map New forecast layout! Learn more

10-Day Weather Forecast

Advertisements
Track Severe Weather on mobile